Time;durP1;ratioP1;P1;durP2;ratioP2;P2;SDS_P1;SDS_P2;PMS_P1;PMS_P2;Temp;Humidity;BMP_temperature;BMP_pressure;BME280_temperature;BME280_humidity;BME280_pressure;Samples;Min_cycle;Max_cycle;Signal;HPM_P1;HPM_P2
2022/03/15 00:00:53;;;;;;;11.23;7.97;;;3.40;99.90;;;;;;5062914;28;20385;-81
2022/03/15 00:03:38;;;;;;;14.90;7.80;;;3.30;99.90;;;;;;5062859;28;20527;-81
2022/03/15 00:06:22;;;;;;;12.53;8.90;;;3.40;99.90;;;;;;5062709;28;20465;-81
2022/03/15 00:09:07;;;;;;;17.40;7.73;;;3.50;99.90;;;;;;5047732;28;20441;-81
2022/03/15 00:11:54;;;;;;;12.90;7.00;;;3.40;99.90;;;;;;5064133;28;20390;-81
2022/03/15 00:14:38;;;;;;;8.40;7.10;;;3.30;99.90;;;;;;5063513;28;20429;-81
2022/03/15 00:17:24;;;;;;;10.30;8.70;;;3.50;99.90;;;;;;5078713;28;20393;-80
2022/03/15 00:20:10;;;;;;;14.83;9.50;;;3.60;99.90;;;;;;5077905;28;20405;-79
2022/03/15 00:22:57;;;;;;;11.33;7.00;;;3.60;99.90;;;;;;5078518;28;20386;-81
2022/03/15 00:25:42;;;;;;;17.03;9.27;;;3.80;99.90;;;;;;5074859;28;20417;-80
2022/03/15 00:28:28;;;;;;;11.37;8.30;;;4.10;99.90;;;;;;5074522;28;20456;-81
2022/03/15 00:31:13;;;;;;;7.50;6.70;;;4.40;99.90;;;;;;5062039;28;20749;-81
2022/03/15 00:33:57;;;;;;;14.83;9.60;;;4.60;99.90;;;;;;5062559;28;20466;-81
2022/03/15 00:36:43;;;;;;;12.13;9.87;;;4.70;99.90;;;;;;5062048;28;20390;-81
2022/03/15 00:39:27;;;;;;;15.00;8.50;;;4.80;99.90;;;;;;5062599;28;20394;-81
2022/03/15 00:42:12;;;;;;;14.60;8.57;;;4.90;99.90;;;;;;5062151;28;20402;-81
2022/03/15 00:45:01;;;;;;;17.63;8.40;;;4.80;99.90;;;;;;5061741;28;20930;-81
2022/03/15 00:47:47;;;;;;;10.80;7.43;;;4.60;99.90;;;;;;5060894;28;20453;-81
2022/03/15 00:50:36;;;;;;;9.70;8.60;;;4.80;99.90;;;;;;5061419;28;20386;-81
2022/03/15 00:53:21;;;;;;;10.60;9.00;;;4.80;99.90;;;;;;5060335;28;20386;-80
2022/03/15 00:56:05;;;;;;;9.60;6.60;;;4.90;99.90;;;;;;5061221;28;20503;-81
2022/03/15 00:58:50;;;;;;;8.40;6.83;;;4.80;99.90;;;;;;5060105;28;20472;-80
2022/03/15 01:01:35;;;;;;;8.10;6.40;;;4.70;99.90;;;;;;5060857;28;20460;-81
2022/03/15 01:04:21;;;;;;;8.90;6.50;;;4.50;99.90;;;;;;5059824;28;20461;-81
2022/03/15 01:07:05;;;;;;;11.37;6.77;;;4.40;99.90;;;;;;5061151;28;20453;-81
2022/03/15 01:09:50;;;;;;;8.87;6.27;;;4.50;99.90;;;;;;5060806;28;20390;-80
2022/03/15 01:12:34;;;;;;;7.97;6.37;;;4.60;99.90;;;;;;5061465;28;20397;-80
2022/03/15 01:15:21;;;;;;;7.77;5.63;;;4.70;99.90;;;;;;5060703;28;20894;-81
2022/03/15 01:18:06;;;;;;;11.13;9.32;;;4.70;99.90;;;;;;5058568;28;20438;-80
2022/03/15 01:20:52;;;;;;;8.83;6.60;;;4.60;99.90;;;;;;5060228;28;20163;-79
2022/03/15 01:23:36;;;;;;;16.47;7.47;;;4.50;99.90;;;;;;5060289;28;20389;-80
2022/03/15 01:26:21;;;;;;;8.17;6.57;;;4.40;99.90;;;;;;5060559;28;20953;-79
2022/03/15 01:29:06;;;;;;;13.23;7.63;;;4.40;99.90;;;;;;5060537;28;20378;-80
2022/03/15 01:31:52;;;;;;;13.50;7.43;;;4.20;99.90;;;;;;5060258;28;20484;-80
2022/03/15 01:34:36;;;;;;;9.70;7.40;;;4.20;99.90;;;;;;5059525;28;20417;-80
2022/03/15 01:37:21;;;;;;;9.00;6.67;;;4.20;99.90;;;;;;5060280;28;20974;-80
2022/03/15 01:40:06;;;;;;;5.47;4.97;;;4.20;99.90;;;;;;5059364;28;20382;-80
2022/03/15 01:42:51;;;;;;;8.90;6.60;;;4.00;99.90;;;;;;5060602;28;20390;-80
2022/03/15 01:45:38;;;;;;;9.60;6.03;;;4.00;99.90;;;;;;5060396;28;20389;-79
2022/03/15 01:48:23;;;;;;;5.93;5.33;;;4.00;99.90;;;;;;5060397;28;20382;-79
2022/03/15 01:51:09;;;;;;;10.07;6.00;;;4.00;99.90;;;;;;5060458;28;20378;-79
2022/03/15 01:53:54;;;;;;;10.60;6.80;;;4.20;99.90;;;;;;5060027;28;20451;-80
2022/03/15 01:56:40;;;;;;;8.70;6.50;;;4.20;99.90;;;;;;5059840;28;20467;-80
2022/03/15 01:59:26;;;;;;;4.97;4.47;;;4.30;99.90;;;;;;5060368;28;20389;-80
2022/03/15 02:02:12;;;;;;;9.43;7.30;;;4.40;99.90;;;;;;5060220;28;20443;-80
2022/03/15 02:04:57;;;;;;;7.80;6.33;;;4.40;99.90;;;;;;5059950;28;20501;-80
2022/03/15 02:07:42;;;;;;;32.70;7.70;;;4.40;99.90;;;;;;5060033;28;20452;-80
2022/03/15 02:10:26;;;;;;;10.50;6.60;;;4.40;99.90;;;;;;5060889;28;20793;-80
2022/03/15 02:13:11;;;;;;;9.17;6.37;;;4.30;99.90;;;;;;5061319;28;20520;-80
2022/03/15 02:15:56;;;;;;;10.50;7.10;;;4.30;99.90;;;;;;5061346;28;20448;-80
2022/03/15 02:18:40;;;;;;;8.53;7.10;;;4.30;99.90;;;;;;5059716;28;20389;-79
2022/03/15 02:21:26;;;;;;;10.67;6.53;;;4.20;99.90;;;;;;5060084;28;20397;-79
2022/03/15 02:24:10;;;;;;;7.27;5.93;;;4.20;99.90;;;;;;5062477;28;20414;-79
2022/03/15 02:26:55;;;;;;;8.43;7.20;;;4.20;99.90;;;;;;5065691;28;20476;-79
2022/03/15 02:29:40;;;;;;;7.33;6.40;;;4.20;99.90;;;;;;5064770;28;20409;-79
2022/03/15 02:32:25;;;;;;;8.47;5.23;;;4.20;99.90;;;;;;5064892;28;20398;-80
2022/03/15 02:35:10;;;;;;;7.87;5.90;;;4.20;99.90;;;;;;5063493;28;20378;-80
2022/03/15 02:37:54;;;;;;;7.00;6.30;;;4.10;99.90;;;;;;5064331;28;20397;-79
2022/03/15 02:40:38;;;;;;;5.87;5.20;;;3.90;99.90;;;;;;5064247;28;20508;-79
2022/03/15 02:43:23;;;;;;;11.00;8.10;;;3.90;99.90;;;;;;5062503;28;20393;-80
2022/03/15 02:46:08;;;;;;;9.73;6.10;;;3.90;99.90;;;;;;5069325;28;20468;-79
2022/03/15 02:48:52;;;;;;;17.33;5.80;;;3.90;99.90;;;;;;5070308;28;20413;-80
2022/03/15 02:51:38;;;;;;;10.50;6.40;;;4.10;99.90;;;;;;5065278;28;20895;-79
2022/03/15 02:54:22;;;;;;;6.50;4.70;;;4.00;99.90;;;;;;5063729;28;20386;-80
2022/03/15 02:57:10;;;;;;;14.83;7.43;;;4.00;99.90;;;;;;5062481;28;20386;-79
2022/03/15 02:59:55;;;;;;;9.00;6.00;;;4.00;99.90;;;;;;5067215;28;20401;-79
2022/03/15 03:02:40;;;;;;;10.30;6.33;;;4.00;99.90;;;;;;5069413;28;20406;-79
2022/03/15 03:05:25;;;;;;;9.67;6.50;;;4.00;99.90;;;;;;5062375;28;20461;-79
2022/03/15 03:08:10;;;;;;;11.20;6.30;;;3.90;99.90;;;;;;5066483;28;20385;-80
2022/03/15 03:10:55;;;;;;;14.80;5.97;;;3.90;99.90;;;;;;5065262;28;20382;-79
2022/03/15 03:13:41;;;;;;;6.30;4.83;;;4.00;99.90;;;;;;5067685;28;20402;-80
2022/03/15 03:16:27;;;;;;;14.20;6.40;;;3.80;99.90;;;;;;5063742;28;20716;-80
2022/03/15 03:19:12;;;;;;;8.63;5.80;;;3.70;99.90;;;;;;5059372;28;20409;-80
2022/03/15 03:21:58;;;;;;;8.03;7.10;;;3.80;99.90;;;;;;5059607;28;20389;-80
2022/03/15 03:24:42;;;;;;;15.67;4.87;;;3.90;99.90;;;;;;5059501;28;20385;-80
2022/03/15 03:27:28;;;;;;;11.23;5.17;;;3.80;99.90;;;;;;5060463;28;21065;-80
2022/03/15 03:30:14;;;;;;;10.77;6.47;;;3.80;99.90;;;;;;5063536;28;20385;-79
2022/03/15 03:32:59;;;;;;;10.10;6.30;;;3.90;99.90;;;;;;5062681;28;20389;-80
2022/03/15 03:35:44;;;;;;;9.20;6.20;;;3.90;99.90;;;;;;5062715;28;20478;-80
2022/03/15 03:38:29;;;;;;;7.90;5.20;;;3.90;99.90;;;;;;5063041;28;20742;-79
2022/03/15 03:41:14;;;;;;;7.03;5.10;;;3.80;99.90;;;;;;5063683;28;20830;-79
2022/03/15 03:43:59;;;;;;;7.97;6.10;;;3.80;99.90;;;;;;5062587;28;20470;-80
2022/03/15 03:46:46;;;;;;;10.67;6.17;;;3.90;99.90;;;;;;5062727;28;20941;-81
2022/03/15 03:49:31;;;;;;;16.30;5.60;;;3.90;99.90;;;;;;5063038;28;20389;-81
2022/03/15 03:52:16;;;;;;;11.27;7.90;;;3.90;99.90;;;;;;5061575;28;20390;-81
2022/03/15 03:55:00;;;;;;;7.70;5.50;;;3.90;99.90;;;;;;5062433;28;20460;-81
2022/03/15 03:57:45;;;;;;;6.50;4.83;;;3.90;99.90;;;;;;5062766;28;20390;-81
2022/03/15 04:00:30;;;;;;;8.37;6.93;;;3.80;99.90;;;;;;5063708;28;20886;-81
2022/03/15 04:03:16;;;;;;;8.77;6.03;;;3.80;99.90;;;;;;5062003;28;20472;-81
2022/03/15 04:06:03;;;;;;;7.50;6.80;;;3.70;99.90;;;;;;5062232;28;21009;-81
2022/03/15 04:08:48;;;;;;;7.97;7.13;;;3.80;99.90;;;;;;5062551;28;20398;-82
2022/03/15 04:11:34;;;;;;;5.37;4.60;;;3.90;99.90;;;;;;5062083;28;20390;-81
2022/03/15 04:14:18;;;;;;;10.60;6.67;;;3.80;99.90;;;;;;5061926;28;20829;-81
2022/03/15 04:17:03;;;;;;;7.30;5.03;;;3.80;99.90;;;;;;5062372;28;20435;-81
2022/03/15 04:19:48;;;;;;;6.37;4.70;;;3.90;99.90;;;;;;5062187;28;20398;-82
2022/03/15 04:22:34;;;;;;;20.13;6.77;;;3.80;99.90;;;;;;5062249;28;20469;-82
2022/03/15 04:25:19;;;;;;;10.03;5.40;;;3.70;99.90;;;;;;5061579;28;20402;-82
2022/03/15 04:28:04;;;;;;;9.57;5.50;;;3.60;99.90;;;;;;5062153;28;20445;-81
2022/03/15 04:30:48;;;;;;;11.50;6.30;;;3.50;99.90;;;;;;5060731;28;20398;-81
2022/03/15 04:33:33;;;;;;;7.70;6.03;;;3.50;99.90;;;;;;5062505;28;20417;-82
2022/03/15 04:36:17;;;;;;;11.93;5.67;;;3.60;99.90;;;;;;5062030;28;20402;-82
2022/03/15 04:39:03;;;;;;;11.33;6.23;;;3.70;99.90;;;;;;5059673;28;20382;-82
2022/03/15 04:41:48;;;;;;;11.80;5.37;;;3.60;99.90;;;;;;5060902;28;20377;-81
2022/03/15 04:44:33;;;;;;;8.00;5.73;;;3.70;99.90;;;;;;5062240;28;20385;-81
2022/03/15 04:47:19;;;;;;;7.50;5.57;;;3.70;99.90;;;;;;5051060;28;20518;-82
2022/03/15 04:50:03;;;;;;;10.20;5.67;;;3.80;99.90;;;;;;5041448;28;20390;-82
2022/03/15 04:52:48;;;;;;;11.30;5.40;;;3.80;99.90;;;;;;5041313;28;20379;-82
2022/03/15 04:55:32;;;;;;;8.70;5.30;;;3.80;99.90;;;;;;5042039;28;20950;-82
2022/03/15 04:58:16;;;;;;;5.80;5.20;;;3.80;99.90;;;;;;5040549;28;20395;-81
2022/03/15 05:01:01;;;;;;;8.60;6.63;;;3.80;99.90;;;;;;5041889;28;20411;-81
2022/03/15 05:03:45;;;;;;;5.80;5.10;;;3.80;99.90;;;;;;5041821;28;20450;-81
2022/03/15 05:06:30;;;;;;;10.43;5.83;;;3.70;99.90;;;;;;5041865;28;20474;-82
2022/03/15 05:09:15;;;;;;;6.30;5.40;;;3.80;99.90;;;;;;5044091;28;20387;-81
2022/03/15 05:12:00;;;;;;;7.60;6.87;;;3.90;99.90;;;;;;5045505;28;20405;-81
2022/03/15 05:14:44;;;;;;;6.10;4.90;;;3.90;99.90;;;;;;5045066;28;20410;-81
2022/03/15 05:17:30;;;;;;;7.50;5.73;;;3.80;99.90;;;;;;5045087;28;20415;-82
2022/03/15 05:20:15;;;;;;;7.20;5.63;;;3.80;99.90;;;;;;5046236;28;20886;-81
2022/03/15 05:22:59;;;;;;;6.67;5.60;;;3.80;99.90;;;;;;5047477;28;20390;-81
2022/03/15 05:25:44;;;;;;;10.40;5.97;;;3.80;99.90;;;;;;5046686;28;20390;-81
2022/03/15 05:28:28;;;;;;;7.77;5.80;;;3.80;99.90;;;;;;5046841;28;20441;-81
2022/03/15 05:31:13;;;;;;;11.70;7.23;;;3.80;99.90;;;;;;5047250;28;20398;-81
2022/03/15 05:33:58;;;;;;;17.13;10.40;;;3.80;99.90;;;;;;5045565;28;20397;-82
2022/03/15 05:36:42;;;;;;;6.57;5.97;;;3.80;99.90;;;;;;5047053;28;20160;-80
2022/03/15 05:39:27;;;;;;;8.83;7.17;;;3.80;99.90;;;;;;5046007;28;20419;-81
2022/03/15 05:42:12;;;;;;;10.80;7.67;;;3.80;99.90;;;;;;5047121;28;20382;-81
2022/03/15 05:44:57;;;;;;;7.30;6.47;;;3.80;99.90;;;;;;5046647;28;20391;-81
2022/03/15 05:47:41;;;;;;;7.70;5.67;;;3.80;99.90;;;;;;5048159;28;20510;-81
2022/03/15 05:50:26;;;;;;;11.00;6.67;;;3.80;99.90;;;;;;5040278;28;20403;-80
2022/03/15 05:53:10;;;;;;;7.83;6.50;;;3.90;99.90;;;;;;5040745;28;20430;-80
2022/03/15 05:55:55;;;;;;;9.53;5.93;;;3.80;99.90;;;;;;5040788;28;20512;-80
2022/03/15 05:58:41;;;;;;;7.17;4.77;;;3.50;99.90;;;;;;5043795;28;20417;-80
2022/03/15 06:01:27;;;;;;;8.87;6.00;;;3.60;99.90;;;;;;5044529;28;20557;-80
2022/03/15 06:04:12;;;;;;;7.97;4.87;;;3.70;99.90;;;;;;5041587;28;20861;-80
2022/03/15 06:06:57;;;;;;;8.73;6.77;;;3.80;99.90;;;;;;5039342;28;20492;-80
2022/03/15 06:09:42;;;;;;;5.73;5.00;;;3.90;99.90;;;;;;5039733;28;20433;-80
2022/03/15 06:12:27;;;;;;;6.53;4.93;;;3.90;99.90;;;;;;5041839;28;20437;-79
2022/03/15 06:15:13;;;;;;;11.30;5.80;;;4.00;99.90;;;;;;5058428;28;20405;-81
2022/03/15 06:18:00;;;;;;;10.20;8.47;;;4.00;99.90;;;;;;5061242;28;20452;-81
2022/03/15 06:20:46;;;;;;;7.23;6.60;;;4.10;99.90;;;;;;5061926;28;20894;-81
2022/03/15 06:23:30;;;;;;;10.20;5.90;;;4.20;99.90;;;;;;5057909;28;20460;-81
2022/03/15 06:26:18;;;;;;;9.50;7.43;;;4.10;99.90;;;;;;5040572;28;20445;-81
2022/03/15 06:29:03;;;;;;;14.17;8.20;;;4.20;99.90;;;;;;5042348;28;20444;-81
2022/03/15 06:31:47;;;;;;;10.23;6.77;;;4.20;99.90;;;;;;5043119;28;20399;-81
2022/03/15 06:34:32;;;;;;;12.70;8.83;;;4.00;99.90;;;;;;5060452;28;20481;-81
2022/03/15 06:37:17;;;;;;;10.47;6.83;;;4.10;99.90;;;;;;5061591;28;20448;-81
2022/03/15 06:40:02;;;;;;;8.97;5.87;;;4.30;99.90;;;;;;5061725;28;20425;-81
2022/03/15 06:42:47;;;;;;;9.97;6.60;;;4.30;99.90;;;;;;5043536;28;20417;-80
2022/03/15 06:45:32;;;;;;;9.80;6.40;;;4.30;99.90;;;;;;5059476;28;20394;-81
2022/03/15 06:48:17;;;;;;;10.67;7.43;;;4.30;99.90;;;;;;5046119;28;20394;-81
2022/03/15 06:51:02;;;;;;;10.70;7.20;;;4.40;99.90;;;;;;5047786;28;20418;-80
2022/03/15 06:53:47;;;;;;;8.40;6.43;;;4.30;99.90;;;;;;5040679;28;20526;-80
2022/03/15 06:56:34;;;;;;;8.57;6.57;;;4.40;99.90;;;;;;5040220;28;20430;-81
2022/03/15 06:59:19;;;;;;;6.37;5.80;;;4.40;99.90;;;;;;5040606;28;20414;-81
2022/03/15 07:02:04;;;;;;;7.27;5.47;;;4.40;99.90;;;;;;5039974;28;20395;-81
2022/03/15 07:04:48;;;;;;;10.70;7.40;;;4.50;99.90;;;;;;5044388;28;20538;-81
2022/03/15 07:07:34;;;;;;;7.00;5.90;;;4.50;99.90;;;;;;5046243;28;20473;-80
2022/03/15 07:10:20;;;;;;;12.77;5.97;;;4.60;99.90;;;;;;5055883;28;20729;-81
2022/03/15 07:13:06;;;;;;;7.10;6.30;;;4.60;99.90;;;;;;5053588;28;20441;-80
2022/03/15 07:15:51;;;;;;;7.47;6.50;;;4.60;99.90;;;;;;5057672;28;20464;-80
2022/03/15 07:18:35;;;;;;;8.63;7.73;;;4.80;99.90;;;;;;5047674;28;20445;-79
2022/03/15 07:21:20;;;;;;;9.40;7.13;;;4.80;99.90;;;;;;5054936;28;20460;-81
2022/03/15 07:24:05;;;;;;;8.37;7.40;;;4.80;99.90;;;;;;5050044;28;20926;-79
2022/03/15 07:26:49;;;;;;;6.57;5.87;;;4.90;99.90;;;;;;5046349;28;20457;-81
2022/03/15 07:29:34;;;;;;;7.03;6.33;;;5.00;99.90;;;;;;5039879;28;20456;-80
2022/03/15 07:32:20;;;;;;;8.07;6.53;;;5.00;99.90;;;;;;5055313;28;20424;-81
2022/03/15 07:35:07;;;;;;;10.83;6.93;;;5.10;99.90;;;;;;5054357;28;20456;-80
2022/03/15 07:37:55;;;;;;;8.23;7.33;;;5.00;99.90;;;;;;5060295;28;20522;-79
2022/03/15 07:40:42;;;;;;;6.67;6.00;;;5.10;99.90;;;;;;5058555;28;20452;-80
2022/03/15 07:43:27;;;;;;;11.63;7.40;;;5.20;99.90;;;;;;5055754;28;20438;-79
2022/03/15 07:46:12;;;;;;;6.03;5.43;;;5.20;99.90;;;;;;5053885;28;20449;-80
2022/03/15 07:48:57;;;;;;;11.73;6.80;;;5.30;99.90;;;;;;5051937;28;20475;-81
2022/03/15 07:51:41;;;;;;;8.33;6.63;;;5.40;99.90;;;;;;5033413;28;20913;-82
2022/03/15 07:54:26;;;;;;;7.60;6.00;;;5.30;99.90;;;;;;5047573;28;20756;-82
2022/03/15 07:57:10;;;;;;;7.03;4.90;;;5.40;99.90;;;;;;5050796;28;20418;-82
2022/03/15 07:59:56;;;;;;;8.17;5.77;;;5.50;99.90;;;;;;5060846;28;20417;-82
2022/03/15 08:02:42;;;;;;;9.27;7.20;;;5.50;99.90;;;;;;5053599;28;20430;-82
2022/03/15 08:05:28;;;;;;;17.13;9.20;;;5.60;99.90;;;;;;5045456;28;20933;-82
2022/03/15 08:08:14;;;;;;;9.80;7.23;;;5.60;99.90;;;;;;5055563;28;20198;-82
2022/03/15 08:10:58;;;;;;;9.03;7.00;;;5.70;99.90;;;;;;5055664;28;20509;-82
2022/03/15 08:13:43;;;;;;;9.03;7.67;;;5.70;99.90;;;;;;5054033;28;20445;-82
2022/03/15 08:16:28;;;;;;;8.57;7.40;;;5.80;99.90;;;;;;5037696;28;20477;-83
2022/03/15 08:19:13;;;;;;;10.80;7.20;;;5.90;99.90;;;;;;5053249;28;20896;-81
2022/03/15 08:22:02;;;;;;;10.27;7.27;;;5.90;99.90;;;;;;5043351;28;20434;-81
2022/03/15 08:24:47;;;;;;;8.53;6.67;;;6.00;99.90;;;;;;5050329;28;20531;-82
2022/03/15 08:27:32;;;;;;;11.23;7.90;;;6.20;99.90;;;;;;5047829;28;20446;-83
2022/03/15 08:30:16;;;;;;;12.13;7.23;;;6.20;99.90;;;;;;5050588;28;20444;-81
2022/03/15 08:33:02;;;;;;;13.33;8.53;;;6.30;99.90;;;;;;5051403;28;20461;-81
2022/03/15 08:35:47;;;;;;;11.30;9.07;;;6.30;99.90;;;;;;5049529;28;20470;-82
2022/03/15 08:38:32;;;;;;;7.13;6.30;;;6.40;99.90;;;;;;5050967;28;20507;-82
2022/03/15 08:41:17;;;;;;;12.10;8.03;;;6.40;99.90;;;;;;5056645;28;20413;-82
2022/03/15 08:44:02;;;;;;;10.23;6.67;;;6.40;99.90;;;;;;5049053;28;20779;-81
2022/03/15 08:46:47;;;;;;;9.70;7.37;;;6.50;99.90;;;;;;5052914;28;20603;-82
2022/03/15 08:49:32;;;;;;;11.95;8.65;;;6.50;99.90;;;;;;5044834;28;20477;-82
2022/03/15 08:52:17;;;;;;;14.17;8.50;;;6.60;99.90;;;;;;5048700;28;20191;-80
2022/03/15 08:55:03;;;;;;;7.73;6.83;;;6.70;99.90;;;;;;5053239;28;20480;-80
2022/03/15 08:57:48;;;;;;;45.57;8.80;;;6.70;99.90;;;;;;5048234;28;20480;-81
2022/03/15 09:00:33;;;;;;;13.87;8.00;;;6.80;99.90;;;;;;5044509;28;20458;-80
2022/03/15 09:03:19;;;;;;;10.00;7.83;;;6.80;99.90;;;;;;5045976;28;20466;-81
2022/03/15 09:06:05;;;;;;;9.03;7.93;;;6.90;99.90;;;;;;5047560;28;20460;-81
2022/03/15 09:08:50;;;;;;;7.63;6.83;;;6.90;99.90;;;;;;5050201;28;20429;-81
2022/03/15 09:11:35;;;;;;;7.80;6.83;;;7.00;99.90;;;;;;5048117;28;20429;-81
2022/03/15 09:14:20;;;;;;;8.70;7.37;;;7.00;99.90;;;;;;5045811;28;20837;-81
2022/03/15 09:17:06;;;;;;;10.87;6.90;;;7.00;99.90;;;;;;5058856;28;20487;-80
2022/03/15 09:19:51;;;;;;;12.20;6.43;;;7.20;99.90;;;;;;5066064;28;20499;-81
2022/03/15 09:22:36;;;;;;;6.60;5.93;;;7.20;99.90;;;;;;5067069;28;20433;-81
2022/03/15 09:25:21;;;;;;;8.70;6.97;;;7.30;99.90;;;;;;5052250;28;20429;-81
2022/03/15 09:28:05;;;;;;;9.63;7.93;;;7.40;99.90;;;;;;5053848;28;21065;-81
2022/03/15 09:30:50;;;;;;;12.37;7.30;;;7.60;99.90;;;;;;5060652;28;20490;-81
2022/03/15 09:33:35;;;;;;;7.73;6.50;;;7.80;99.90;;;;;;5063024;28;20430;-81
2022/03/15 09:36:21;;;;;;;9.13;8.23;;;8.00;99.90;;;;;;5046883;28;20414;-80
2022/03/15 09:39:07;;;;;;;7.97;6.50;;;8.10;99.90;;;;;;5054612;28;20465;-80
2022/03/15 09:41:54;;;;;;;11.40;7.03;;;8.30;99.90;;;;;;5046643;28;20443;-81
2022/03/15 09:44:40;;;;;;;7.23;5.53;;;8.30;99.90;;;;;;5048190;28;20449;-81
2022/03/15 09:47:31;;;;;;;10.80;6.83;;;8.30;99.90;;;;;;5045407;28;20461;-81
2022/03/15 09:50:15;;;;;;;11.73;7.87;;;8.30;99.90;;;;;;5053496;28;20459;-82
2022/03/15 09:53:00;;;;;;;13.83;8.10;;;8.50;99.90;;;;;;5044350;28;20939;-82
2022/03/15 09:55:46;;;;;;;9.40;7.53;;;8.60;99.90;;;;;;5045798;28;20461;-81
2022/03/15 09:58:30;;;;;;;9.33;6.70;;;8.60;99.90;;;;;;5053419;28;20545;-80
2022/03/15 10:01:19;;;;;;;10.27;7.07;;;8.70;99.90;;;;;;5045975;28;20468;-82
2022/03/15 10:04:04;;;;;;;8.03;6.97;;;8.80;99.90;;;;;;5047065;28;20975;-81
2022/03/15 10:06:50;;;;;;;9.93;7.10;;;8.90;99.90;;;;;;5052458;28;20457;-81
2022/03/15 10:09:35;;;;;;;7.83;6.80;;;8.90;99.90;;;;;;5045952;28;20457;-81
2022/03/15 10:12:20;;;;;;;16.97;6.00;;;8.90;99.90;;;;;;5048136;28;20436;-82
2022/03/15 10:15:16;;;;;;;8.80;6.90;;;8.90;99.90;;;;;;5050529;28;20414;-81
2022/03/15 10:18:07;;;;;;;6.83;5.73;;;8.90;99.90;;;;;;5046962;28;20784;-82
2022/03/15 10:20:53;;;;;;;13.73;8.30;;;8.80;99.90;;;;;;5047554;28;20454;-81
2022/03/15 10:23:39;;;;;;;14.60;6.80;;;8.90;99.90;;;;;;5050177;28;20506;-80
2022/03/15 10:26:26;;;;;;;10.57;7.57;;;8.80;99.90;;;;;;5054881;28;20526;-79
2022/03/15 10:29:13;;;;;;;9.60;7.63;;;8.90;99.90;;;;;;5047867;28;20465;-80
2022/03/15 10:31:59;;;;;;;12.47;8.23;;;9.00;99.90;;;;;;5047247;28;20589;-81
2022/03/15 10:34:43;;;;;;;9.30;7.00;;;9.10;99.90;;;;;;5047716;28;20453;-81
2022/03/15 10:37:32;;;;;;;19.50;8.77;;;9.30;99.90;;;;;;5046661;28;20421;-80
2022/03/15 10:40:17;;;;;;;8.37;7.50;;;9.30;99.90;;;;;;5043563;28;20856;-81
2022/03/15 10:43:08;;;;;;;12.73;9.07;;;9.40;99.90;;;;;;5053702;28;20466;-80
2022/03/15 10:45:56;;;;;;;11.03;7.40;;;9.60;99.90;;;;;;5044351;28;20514;-81
2022/03/15 10:48:42;;;;;;;6.70;6.10;;;10.00;99.90;;;;;;5052967;28;20438;-81
2022/03/15 10:51:28;;;;;;;11.07;7.27;;;10.40;99.90;;;;;;5043098;28;20522;-82
2022/03/15 10:54:15;;;;;;;9.37;8.40;;;10.60;99.90;;;;;;5043924;28;20433;-81
2022/03/15 10:57:00;;;;;;;9.40;7.13;;;11.00;99.90;;;;;;5053002;28;20437;-81
2022/03/15 10:59:45;;;;;;;8.13;7.33;;;11.00;99.90;;;;;;5050873;28;21040;-81
2022/03/15 11:02:30;;;;;;;9.80;6.70;;;10.80;99.90;;;;;;5050470;28;20524;-81
2022/03/15 11:05:29;;;;;;;8.10;7.30;;;11.00;99.90;;;;;;5052130;28;20430;-81
2022/03/15 11:08:15;;;;;;;7.73;6.83;;;11.20;99.90;;;;;;5059219;28;21016;-82
2022/03/15 11:11:05;;;;;;;7.43;6.73;;;11.20;99.90;;;;;;5053160;28;20458;-82
2022/03/15 11:13:50;;;;;;;7.80;6.93;;;11.10;99.90;;;;;;5057556;28;20426;-82
2022/03/15 11:16:37;;;;;;;10.03;7.00;;;11.00;99.90;;;;;;5054240;28;20414;-82
2022/03/15 11:19:25;;;;;;;9.60;7.77;;;10.60;99.90;;;;;;5059979;28;20464;-82
2022/03/15 11:22:13;;;;;;;7.70;7.00;;;10.60;99.90;;;;;;5061050;28;20426;-80
2022/03/15 11:25:06;;;;;;;11.27;8.03;;;10.70;99.90;;;;;;5052046;28;20419;-82
2022/03/15 11:27:54;;;;;;;8.50;7.70;;;10.40;99.90;;;;;;5058488;28;20555;-81
2022/03/15 11:30:40;;;;;;;13.90;8.30;;;10.70;99.90;;;;;;5048634;28;20482;-81
2022/03/15 11:33:26;;;;;;;18.97;8.47;;;11.10;99.90;;;;;;5050509;28;20437;-81
2022/03/15 11:36:13;;;;;;;9.87;7.97;;;11.30;99.90;;;;;;5047951;28;20404;-80
2022/03/15 11:38:58;;;;;;;7.80;7.00;;;11.30;99.90;;;;;;5048412;28;20441;-81
2022/03/15 11:41:44;;;;;;;13.33;7.47;;;11.30;99.90;;;;;;5059181;28;20425;-81
2022/03/15 11:44:42;;;;;;;8.63;6.50;;;11.10;99.90;;;;;;5051035;28;20477;-81
2022/03/15 11:47:48;;;;;;;8.23;7.43;;;11.10;99.90;;;;;;5054159;28;20952;-80
2022/03/15 11:51:08;;;;;;;8.10;6.93;;;11.00;99.90;;;;;;5058322;28;20544;-79
2022/03/15 11:54:14;;;;;;;9.53;5.87;;;11.00;99.90;;;;;;5059311;28;20465;-81
2022/03/15 11:57:04;;;;;;;9.60;6.10;;;11.10;99.90;;;;;;5056099;28;20453;-79
2022/03/15 12:00:10;;;;;;;7.13;4.80;;;11.00;99.90;;;;;;5059445;28;20442;-81
2022/03/15 12:02:59;;;;;;;10.03;6.80;;;10.90;99.90;;;;;;5076892;28;20431;-82
2022/03/15 12:05:45;;;;;;;13.77;7.17;;;10.90;99.90;;;;;;5073319;28;20449;-80
2022/03/15 12:08:35;;;;;;;15.80;9.67;;;10.70;99.90;;;;;;5065245;28;21314;-81
2022/03/15 12:11:34;;;;;;;12.20;7.10;;;10.80;99.90;;;;;;5066099;28;20558;-80
2022/03/15 12:14:20;;;;;;;8.87;6.67;;;10.60;99.90;;;;;;5051908;28;20433;-81
2022/03/15 12:17:05;;;;;;;8.43;6.37;;;10.70;99.90;;;;;;5042796;28;20534;-82
2022/03/15 12:19:53;;;;;;;7.40;6.37;;;10.60;99.90;;;;;;5068551;28;20428;-81
2022/03/15 12:22:38;;;;;;;11.63;6.57;;;10.70;99.90;;;;;;5074379;28;20857;-81
2022/03/15 12:25:36;;;;;;;17.17;7.17;;;10.80;99.90;;;;;;5049505;28;20417;-80
2022/03/15 12:28:31;;;;;;;8.33;6.67;;;10.60;99.90;;;;;;5064750;28;20460;-80
2022/03/15 12:31:18;;;;;;;8.03;6.00;;;10.80;99.90;;;;;;5061304;28;20444;-79
2022/03/15 12:34:08;;;;;;;6.63;5.93;;;10.90;99.90;;;;;;5062239;28;20612;-80
2022/03/15 12:36:59;;;;;;;10.70;6.83;;;11.00;99.90;;;;;;5064258;28;20456;-81
2022/03/15 12:39:54;;;;;;;10.13;6.63;;;10.80;99.90;;;;;;5050216;28;20434;-80
2022/03/15 12:42:50;;;;;;;11.53;7.53;;;10.80;99.90;;;;;;5044106;28;20481;-80
2022/03/15 12:45:45;;;;;;;7.10;6.10;;;10.80;99.90;;;;;;5042077;28;20421;-82
2022/03/15 12:48:34;;;;;;;15.20;7.77;;;10.90;99.90;;;;;;5060761;28;20461;-79
2022/03/15 12:51:19;;;;;;;14.00;8.10;;;10.80;99.90;;;;;;5049393;28;20435;-80
2022/03/15 12:54:06;;;;;;;11.07;8.57;;;10.70;99.90;;;;;;5049752;28;20438;-78
2022/03/15 12:56:53;;;;;;;10.10;7.37;;;10.80;99.90;;;;;;5044417;28;20953;-81
2022/03/15 12:59:38;;;;;;;11.07;8.35;;;10.70;99.90;;;;;;5044652;28;20435;-81
2022/03/15 13:02:24;;;;;;;8.50;7.70;;;10.70;99.90;;;;;;5050553;28;20207;-80
2022/03/15 13:05:15;;;;;;;8.23;7.07;;;10.80;99.90;;;;;;5047277;28;20461;-79
2022/03/15 13:08:03;;;;;;;12.77;7.80;;;10.70;99.90;;;;;;5049379;28;20818;-82
2022/03/15 13:10:49;;;;;;;7.23;5.73;;;10.80;99.90;;;;;;5057824;28;20446;-81
2022/03/15 13:13:34;;;;;;;12.93;7.90;;;10.70;99.90;;;;;;5044384;28;20415;-81
2022/03/15 13:16:21;;;;;;;9.07;6.40;;;10.80;99.90;;;;;;5063644;28;20472;-83
2022/03/15 13:19:06;;;;;;;10.43;6.60;;;10.70;99.90;;;;;;5053806;28;20425;-83
2022/03/15 13:21:50;;;;;;;10.90;6.70;;;10.80;99.90;;;;;;5047200;28;20431;-83
2022/03/15 13:24:37;;;;;;;9.03;6.80;;;10.80;99.90;;;;;;5063434;28;21036;-80
2022/03/15 13:27:22;;;;;;;10.03;7.07;;;10.70;99.90;;;;;;5049444;28;20461;-80
2022/03/15 13:30:10;;;;;;;13.40;7.90;;;10.80;99.90;;;;;;5049662;28;20438;-81
2022/03/15 13:32:54;;;;;;;20.10;9.63;;;10.70;99.90;;;;;;5057535;28;20438;-83
2022/03/15 13:35:40;;;;;;;11.77;8.63;;;10.70;99.90;;;;;;5052963;28;20482;-83
2022/03/15 13:38:26;;;;;;;12.10;8.37;;;10.70;99.90;;;;;;5043963;28;20176;-82
2022/03/15 13:41:13;;;;;;;12.80;7.97;;;10.60;99.90;;;;;;5052026;28;20444;-81
2022/03/15 13:43:59;;;;;;;11.00;8.33;;;10.60;99.90;;;;;;5083420;28;20437;-82
2022/03/15 13:46:46;;;;;;;9.50;7.40;;;10.60;99.90;;;;;;5051283;28;20477;-81
2022/03/15 13:49:36;;;;;;;10.43;6.20;;;10.50;99.90;;;;;;5059688;28;20430;-81
2022/03/15 13:52:23;;;;;;;9.37;8.30;;;10.50;99.90;;;;;;5068060;28;20416;-81
2022/03/15 13:55:10;;;;;;;11.00;7.70;;;10.50;99.90;;;;;;5061730;28;20526;-82
2022/03/15 13:57:54;;;;;;;12.13;6.93;;;10.40;99.90;;;;;;5065579;28;20481;-82
2022/03/15 14:00:59;;;;;;;15.70;8.20;;;10.30;99.90;;;;;;5073606;28;20433;-79
2022/03/15 14:03:45;;;;;;;11.30;8.30;;;10.20;99.90;;;;;;5053008;28;20481;-83
2022/03/15 14:06:35;;;;;;;14.87;8.00;;;10.20;99.90;;;;;;5053612;28;20454;-81
2022/03/15 14:09:27;;;;;;;12.00;7.60;;;10.20;99.90;;;;;;5048304;28;20493;-80
2022/03/15 14:12:17;;;;;;;8.77;7.87;;;10.10;99.90;;;;;;5050142;28;20771;-79
2022/03/15 14:15:13;;;;;;;10.57;7.80;;;10.10;99.90;;;;;;5046736;28;20441;-82
2022/03/15 14:17:58;;;;;;;8.87;7.33;;;10.10;99.90;;;;;;5047496;28;20538;-81
2022/03/15 14:20:44;;;;;;;11.97;7.83;;;10.10;99.90;;;;;;5055098;28;20484;-81
2022/03/15 14:23:29;;;;;;;11.37;7.90;;;10.10;99.90;;;;;;5055039;28;20466;-81
2022/03/15 14:26:28;;;;;;;10.97;8.77;;;10.00;99.90;;;;;;5063341;28;20484;-81
2022/03/15 14:29:19;;;;;;;20.92;8.75;;;10.00;99.90;;;;;;5051915;28;20418;-80